Portada
METAR-TAF:

METAR-TAF

Aeroports :

South Alabama Regional Airport

Andalusia, Alabama, Estats Units d'Amèrica

latitud: 31-18-00N, longitud: 086-23-00W, altitud: 94 m

Observació

L'informe es va fer fa 33 minuts, a les 13:56 UTC
Vent 4 kt amb direcció variable
Temperatura 23°C
Humitat 78%
Pressió 1008 hPa
Visibilitat: 14.5 km
Escasses núvols a una alçada de 4500 ft
Cel ennuvolat a una alçada de 8500 ft
Cel ennuvolat a una alçada de 11000 ft

METAR: K79J 311356Z AUTO VRB04KT 9SM FEW045 BKN085 BKN110 23/19 A2977 RMK AO2 SLP075 T02280189

Hora: 09:29 (14:29 UTC)


TAF: manca

Observacions i pronòstics meteorològics de més de 4000 aeroports (METAR i TAF).

Les estacions disponibles són els punts grocs i vermells al mapa.

Posi el ratolí al punt desitjat per veure el nom de l'estació.

Feu clic per veure les observacions i els pronòstics meteorològics.

Per canviar el mapa: feu clic els botons verds amb una creu de color negre per apropar; al botó verd amb un guió per allunyar la imatge; o en les fletxes verdes per a mapes adjacents.


METAR-TAF: